Time;durP1;ratioP1;P1;durP2;ratioP2;P2;SDS_P1;SDS_P2;PMS_P1;PMS_P2;Temp;Humidity;BMP_temperature;BMP_pressure;BME280_temperature;BME280_humidity;BME280_pressure;Samples;Min_cycle;Max_cycle;Signal;HPM_P1;HPM_P2
2022/08/08 00:03:00;;;;;;;3.78;2.30;;;22.30;56.10;;;;;;10516700;28;20105;-51
2022/08/08 00:08:50;;;;;;;4.55;2.75;;;22.30;56.10;;;;;;10539215;28;20434;-50
2022/08/08 00:14:33;;;;;;;3.53;2.70;;;22.30;56.10;;;;;;10496908;28;20071;-51
2022/08/08 00:20:02;;;;;;;3.28;2.38;;;22.30;56.20;;;;;;10511224;28;20048;-52
2022/08/08 00:25:11;;;;;;;3.60;2.77;;;22.30;56.20;;;;;;10538594;28;20071;-54
2022/08/08 00:30:12;;;;;;;;;;;22.20;56.10;;;;;;10521916;28;20036;-53
2022/08/08 00:35:53;;;;;;;3.38;2.45;;;22.20;56.30;;;;;;10538680;28;19955;-52
2022/08/08 00:41:24;;;;;;;3.40;2.60;;;22.20;56.20;;;;;;10538257;28;20051;-51
2022/08/08 00:47:22;;;;;;;2.80;2.22;;;22.20;56.20;;;;;;10537651;28;20032;-52
2022/08/08 00:52:36;;;;;;;3.30;2.50;;;22.20;56.20;;;;;;10456933;28;20097;-52
2022/08/08 00:58:04;;;;;;;3.22;2.00;;;22.20;56.20;;;;;;10537687;28;20030;-52
2022/08/08 01:03:39;;;;;;;3.75;2.47;;;22.20;56.20;;;;;;10537034;28;20032;-51
2022/08/08 01:09:25;;;;;;;3.00;2.28;;;22.20;56.30;;;;;;10519458;28;20390;-50
2022/08/08 01:15:01;;;;;;;3.78;2.50;;;22.20;56.20;;;;;;10533666;28;20046;-52
2022/08/08 01:20:27;;;;;;;2.60;2.10;;;22.20;56.20;;;;;;10514965;28;20036;-51
2022/08/08 01:26:04;;;;;;;5.30;2.45;;;22.20;56.30;;;;;;10537114;28;20047;-51
2022/08/08 01:31:47;;;;;;;3.38;2.38;;;22.20;56.30;;;;;;10536632;28;20441;-51
2022/08/08 01:37:45;;;;;;;3.28;2.55;;;22.20;56.30;;;;;;10535869;28;20032;-52
2022/08/08 01:43:19;;;;;;;3.58;2.33;;;22.10;56.20;;;;;;10519558;28;20024;-52
2022/08/08 01:49:06;;;;;;;3.85;2.70;;;22.20;56.20;;;;;;10508486;28;20032;-53
2022/08/08 01:54:40;;;;;;;3.38;2.03;;;22.10;56.20;;;;;;10477433;28;20040;-50
2022/08/08 02:00:09;;;;;;;3.55;2.20;;;22.10;56.20;;;;;;10535198;28;20126;-52
2022/08/08 02:05:50;;;;;;;3.90;2.83;;;22.10;56.20;;;;;;10534094;28;20463;-52
2022/08/08 02:11:09;;;;;;;2.85;2.50;;;22.10;56.20;;;;;;10534434;28;20068;-52
2022/08/08 02:16:44;;;;;;;3.28;2.40;;;22.10;56.10;;;;;;10517783;28;20035;-52
2022/08/08 02:27:20;;;;;;;3.33;2.60;;;22.10;56.10;;;;;;10533903;28;20040;-52
2022/08/08 02:33:08;;;;;;;2.97;2.47;;;22.10;56.10;;;;;;10515774;28;20028;-51
2022/08/08 02:38:58;;;;;;;3.97;2.72;;;22.10;56.20;;;;;;10528017;28;20071;-53
2022/08/08 02:44:32;;;;;;;3.03;2.53;;;22.10;56.20;;;;;;10502361;28;20591;-51
2022/08/08 02:49:50;;;;;;;2.97;2.28;;;22.10;56.20;;;;;;10523523;28;20036;-53
2022/08/08 02:55:09;;;;;;;3.03;2.28;;;22.00;56.10;;;;;;10515613;28;20478;-51
2022/08/08 03:00:57;;;;;;;3.00;1.93;;;22.10;56.10;;;;;;10533198;28;20035;-52
2022/08/08 03:06:18;;;;;;;3.38;2.35;;;22.00;56.00;;;;;;10523772;28;20277;-51
2022/08/08 03:11:43;;;;;;;2.33;2.10;;;22.00;56.00;;;;;;10532376;28;20024;-52
2022/08/08 03:17:13;;;;;;;2.35;2.15;;;22.00;56.00;;;;;;10532663;28;20059;-54
2022/08/08 03:22:14;;;;;;;3.65;2.50;;;22.00;55.90;;;;;;10514284;28;20440;-52
2022/08/08 03:27:27;;;;;;;2.70;2.13;;;22.00;55.80;;;;;;10532496;28;20114;-53
2022/08/08 03:37:48;;;;;;;3.20;2.85;;;22.00;55.80;;;;;;10517355;28;20060;-53
2022/08/08 03:42:49;;;;;;;2.85;2.47;;;22.00;55.80;;;;;;10532172;28;20039;-51
2022/08/08 03:48:07;;;;;;;3.22;2.55;;;22.00;55.80;;;;;;10532319;28;20425;-51
2022/08/08 03:53:18;;;;;;;3.05;2.58;;;22.00;55.80;;;;;;10531574;28;20693;-53
2022/08/08 03:58:22;;;;;;;4.28;2.63;;;22.00;55.70;;;;;;10530061;28;20032;-50
2022/08/08 04:03:23;;;;;;;3.15;2.85;;;21.90;55.80;;;;;;10530335;28;20036;-51
2022/08/08 04:08:24;;;;;;;4.32;2.90;;;21.90;55.90;;;;;;10513681;28;20028;-51
2022/08/08 04:13:25;;;;;;;3.28;2.45;;;22.00;55.90;;;;;;10513281;28;20020;-51
2022/08/08 04:18:25;;;;;;;3.33;2.35;;;21.90;55.80;;;;;;10513652;28;20099;-52
2022/08/08 04:23:26;;;;;;;3.08;2.40;;;22.00;55.90;;;;;;10538676;28;20036;-51
2022/08/08 04:28:27;;;;;;;3.28;2.97;;;22.00;55.80;;;;;;10539000;28;20035;-52
2022/08/08 04:33:28;;;;;;;4.40;2.70;;;22.00;55.70;;;;;;10538494;28;20039;-53
2022/08/08 04:38:28;;;;;;;5.07;2.80;;;22.00;56.10;;;;;;10538186;28;20051;-52
2022/08/08 04:43:29;;;;;;;3.47;3.10;;;22.00;55.90;;;;;;10533553;28;20130;-53
2022/08/08 04:48:30;;;;;;;4.78;3.10;;;22.00;55.90;;;;;;10531636;28;20020;-53
2022/08/08 04:53:31;;;;;;;3.38;2.80;;;21.90;55.70;;;;;;10537288;28;20036;-51
2022/08/08 04:58:32;;;;;;;4.82;3.20;;;21.90;55.90;;;;;;10537339;28;20027;-52
2022/08/08 05:03:32;;;;;;;4.43;3.97;;;22.00;56.60;;;;;;10519296;28;20050;-53
2022/08/08 05:08:33;;;;;;;5.70;4.07;;;22.00;56.70;;;;;;10536869;28;20054;-53
2022/08/08 05:13:34;;;;;;;6.18;4.43;;;22.00;56.70;;;;;;10501782;28;20016;-52
2022/08/08 05:18:35;;;;;;;11.68;4.13;;;22.10;57.50;;;;;;10536428;28;20044;-54
2022/08/08 05:23:36;;;;;;;9.85;3.67;;;22.10;57.30;;;;;;10535699;28;20115;-55
2022/08/08 05:28:37;;;;;;;7.95;4.13;;;22.10;58.00;;;;;;10515876;28;20028;-54
2022/08/08 05:33:38;;;;;;;10.25;3.67;;;22.20;58.60;;;;;;10535709;28;20035;-56
2022/08/08 05:38:49;;;;;;;6.13;3.70;;;22.10;58.50;;;;;;10535176;28;20044;-52
2022/08/08 05:44:00;;;;;;;11.50;3.70;;;22.20;58.80;;;;;;10506893;28;20399;-53
2022/08/08 05:49:02;;;;;;;15.65;4.22;;;22.20;58.60;;;;;;10517585;28;20068;-53
2022/08/08 05:54:04;;;;;;;9.85;3.08;;;22.10;58.60;;;;;;10535737;28;20099;-52
2022/08/08 05:59:17;;;;;;;15.27;3.95;;;22.10;58.20;;;;;;10535044;28;20030;-48
2022/08/08 06:04:23;;;;;;;15.15;4.60;;;22.00;58.20;;;;;;10516649;28;20039;-51
2022/08/08 06:09:32;;;;;;;9.85;3.45;;;22.10;58.30;;;;;;10515327;28;20039;-52
2022/08/08 06:14:33;;;;;;;13.45;4.30;;;22.10;58.40;;;;;;10531130;28;20039;-52
2022/08/08 06:19:34;;;;;;;16.23;3.60;;;22.10;58.70;;;;;;10514735;28;20035;-52
2022/08/08 06:24:35;;;;;;;11.25;3.72;;;22.00;58.80;;;;;;10531017;28;20031;-52
2022/08/08 06:29:51;;;;;;;26.02;4.88;;;22.00;58.70;;;;;;10512759;28;20106;-51
2022/08/08 06:34:53;;;;;;;11.23;3.28;;;22.00;58.60;;;;;;10531747;28;20115;-52
2022/08/08 06:39:59;;;;;;;15.90;4.18;;;22.00;58.70;;;;;;10514281;28;20050;-52
2022/08/08 06:45:01;;;;;;;19.30;4.32;;;22.00;58.50;;;;;;10504056;28;20547;-52
2022/08/08 06:50:04;;;;;;;10.88;3.17;;;22.00;58.60;;;;;;10532426;28;20040;-51
2022/08/08 06:55:06;;;;;;;6.70;2.40;;;22.00;58.50;;;;;;10531837;28;20016;-50
2022/08/08 07:00:07;;;;;;;6.05;2.53;;;22.00;58.40;;;;;;10531809;28;20067;-52
2022/08/08 07:05:14;;;;;;;8.68;3.00;;;22.00;58.50;;;;;;10531686;28;20610;-50
2022/08/08 07:10:19;;;;;;;7.00;2.40;;;22.00;58.50;;;;;;10531620;28;20028;-50
2022/08/08 07:16:02;;;;;;;8.23;2.90;;;22.00;58.50;;;;;;10513807;28;20016;-53
2022/08/08 07:21:06;;;;;;;3.38;2.50;;;22.00;58.50;;;;;;10515386;28;20035;-52
2022/08/08 07:26:09;;;;;;;4.32;2.45;;;22.00;58.50;;;;;;10513308;28;20054;-51
2022/08/08 07:31:10;;;;;;;5.95;1.98;;;21.90;58.30;;;;;;10499516;28;20024;-51
2022/08/08 07:36:12;;;;;;;6.00;2.08;;;22.00;58.20;;;;;;10531339;28;20024;-53
2022/08/08 07:41:17;;;;;;;7.63;2.47;;;22.00;58.40;;;;;;10513076;28;20089;-53
2022/08/08 07:46:18;;;;;;;5.53;2.40;;;22.00;58.50;;;;;;10499477;28;20024;-52
2022/08/08 07:51:19;;;;;;;6.28;2.55;;;22.00;58.40;;;;;;10513074;28;20123;-51
2022/08/08 07:56:23;;;;;;;5.65;2.65;;;22.00;58.40;;;;;;10538042;28;20039;-52
2022/08/08 08:01:27;;;;;;;5.68;2.67;;;22.00;58.30;;;;;;10520987;28;20039;-52
2022/08/08 08:06:32;;;;;;;4.03;2.75;;;22.00;58.30;;;;;;10520692;28;20111;-51
2022/08/08 08:11:38;;;;;;;6.15;2.20;;;22.10;58.30;;;;;;10538452;28;20020;-53
2022/08/08 08:16:39;;;;;;;6.72;2.10;;;22.10;58.30;;;;;;10503864;28;20606;-52
2022/08/08 08:21:45;;;;;;;5.90;2.40;;;22.10;58.30;;;;;;10520078;28;20054;-52
2022/08/08 08:26:46;;;;;;;5.85;2.03;;;22.10;58.20;;;;;;10538935;28;20028;-52
2022/08/08 08:31:47;;;;;;;4.00;2.20;;;22.10;58.20;;;;;;10538586;28;20028;-52
2022/08/08 08:36:48;;;;;;;3.92;1.80;;;22.10;58.30;;;;;;10537242;28;20039;-52
2022/08/08 08:41:50;;;;;;;5.82;1.85;;;22.10;58.20;;;;;;10537285;28;20063;-51
2022/08/08 08:46:51;;;;;;;5.05;1.98;;;22.10;57.90;;;;;;10509055;28;20479;-52
2022/08/08 08:51:55;;;;;;;5.78;2.33;;;22.10;57.40;;;;;;10518607;28;20035;-54
2022/08/08 08:56:56;;;;;;;5.70;2.40;;;22.10;57.00;;;;;;10520357;28;20109;-51
2022/08/08 09:01:58;;;;;;;4.60;2.13;;;22.10;56.80;;;;;;10537535;28;20040;-52
2022/08/08 09:07:01;;;;;;;5.57;1.75;;;22.10;57.00;;;;;;10517888;28;20067;-53
2022/08/08 09:12:02;;;;;;;7.70;2.30;;;22.10;57.10;;;;;;10518836;28;20031;-53
2022/08/08 09:17:03;;;;;;;9.80;2.53;;;22.10;58.20;;;;;;10518869;28;20032;-52
2022/08/08 09:22:06;;;;;;;21.77;4.03;;;22.10;58.10;;;;;;10536273;28;20347;-52
2022/08/08 09:27:07;;;;;;;11.73;3.35;;;22.10;58.00;;;;;;10518583;28;20027;-52
2022/08/08 09:32:17;;;;;;;11.80;2.75;;;22.10;58.20;;;;;;10536314;28;20024;-53
2022/08/08 09:37:22;;;;;;;14.70;3.30;;;22.10;58.20;;;;;;10535912;28;20052;-52
2022/08/08 09:42:27;;;;;;;13.07;3.10;;;22.20;58.20;;;;;;10518830;28;20031;-52
2022/08/08 09:47:31;;;;;;;8.77;3.00;;;22.20;58.20;;;;;;10508570;28;20024;-52
2022/08/08 09:52:34;;;;;;;10.02;2.60;;;22.20;58.00;;;;;;10535617;28;20024;-53
2022/08/08 09:57:40;;;;;;;8.60;2.78;;;22.20;58.00;;;;;;10535257;28;20028;-52
2022/08/08 10:02:51;;;;;;;9.43;2.33;;;22.20;58.30;;;;;;10535109;28;20032;-52
2022/08/08 10:07:51;;;;;;;11.60;2.22;;;22.10;58.20;;;;;;10534911;28;20471;-55
2022/08/08 10:12:53;;;;;;;14.85;3.03;;;22.10;57.80;;;;;;10534655;28;20111;-54
2022/08/08 10:17:55;;;;;;;16.08;3.00;;;22.20;58.60;;;;;;10534425;28;20486;-52
2022/08/08 10:23:02;;;;;;;11.40;2.80;;;22.20;58.20;;;;;;10516487;28;20051;-50
2022/08/08 10:28:05;;;;;;;15.32;3.25;;;22.20;58.10;;;;;;10534202;28;20081;-52
2022/08/08 10:33:08;;;;;;;8.80;2.50;;;22.20;58.20;;;;;;10516701;28;20017;-53
2022/08/08 10:38:15;;;;;;;12.75;2.63;;;22.20;58.30;;;;;;10515634;28;20077;-53
2022/08/08 10:43:16;;;;;;;19.35;3.83;;;22.10;58.60;;;;;;10531102;28;20032;-53
2022/08/08 10:48:16;;;;;;;10.68;3.50;;;22.20;58.70;;;;;;10491649;28;20024;-51
2022/08/08 10:53:18;;;;;;;9.50;2.53;;;22.10;58.40;;;;;;10515029;28;20032;-53
2022/08/08 10:58:27;;;;;;;8.70;2.60;;;22.10;58.30;;;;;;10533208;28;20047;-54
2022/08/08 11:03:38;;;;;;;10.52;2.53;;;22.10;58.20;;;;;;10532962;28;20020;-53
2022/08/08 11:08:40;;;;;;;8.70;2.53;;;22.10;58.10;;;;;;10516406;28;20031;-53
2022/08/08 11:13:44;;;;;;;10.98;2.33;;;22.10;58.20;;;;;;10514889;28;20418;-53
2022/08/08 11:18:48;;;;;;;11.73;3.75;;;22.10;58.20;;;;;;10532839;28;20128;-53
2022/08/08 11:23:49;;;;;;;10.23;2.72;;;22.10;58.00;;;;;;10514583;28;20118;-53
2022/08/08 11:28:51;;;;;;;6.78;1.98;;;22.10;58.00;;;;;;10513108;28;20028;-53
2022/08/08 11:33:56;;;;;;;9.68;2.03;;;22.10;58.00;;;;;;10535742;28;20032;-53
2022/08/08 11:38:56;;;;;;;7.43;1.95;;;22.10;58.20;;;;;;10522845;28;20399;-53
2022/08/08 11:43:58;;;;;;;3.00;1.52;;;22.20;57.90;;;;;;10514527;28;20033;-52
2022/08/08 11:49:07;;;;;;;6.25;2.20;;;22.20;57.90;;;;;;10539403;28;20023;-53
2022/08/08 11:54:08;;;;;;;15.52;2.50;;;22.10;57.90;;;;;;10518928;28;20032;-53
2022/08/08 11:59:10;;;;;;;10.48;2.85;;;22.10;58.00;;;;;;10537005;28;20028;-53
2022/08/08 12:04:11;;;;;;;15.23;2.70;;;22.10;58.20;;;;;;10500471;28;20499;-55
2022/08/08 12:09:12;;;;;;;6.22;2.47;;;22.10;59.30;;;;;;10520498;28;20032;-54
2022/08/08 12:14:22;;;;;;;7.68;2.15;;;22.20;59.20;;;;;;10534938;28;20038;-55
2022/08/08 12:19:24;;;;;;;11.93;3.20;;;22.30;59.20;;;;;;10537954;28;20028;-54
2022/08/08 12:24:25;;;;;;;15.68;2.85;;;22.30;59.40;;;;;;10538237;28;20027;-54
2022/08/08 12:29:32;;;;;;;15.90;2.95;;;22.30;59.30;;;;;;10538673;28;20048;-52
2022/08/08 12:34:44;;;;;;;17.13;3.30;;;22.20;59.00;;;;;;10538467;28;20028;-52
2022/08/08 12:39:44;;;;;;;18.55;3.80;;;22.20;59.30;;;;;;10519152;28;20048;-52
2022/08/08 12:44:45;;;;;;;29.98;4.10;;;22.20;59.20;;;;;;10528775;28;20032;-53
2022/08/08 12:49:54;;;;;;;19.80;3.38;;;22.20;59.50;;;;;;10519649;28;20038;-53
2022/08/08 12:55:11;;;;;;;44.90;5.67;;;22.20;59.60;;;;;;10519735;28;20027;-52
2022/08/08 13:00:12;;;;;;;30.15;5.55;;;22.30;59.90;;;;;;10537470;28;20039;-53
2022/08/08 13:05:23;;;;;;;36.13;6.68;;;22.30;59.60;;;;;;10537380;28;20031;-52
2022/08/08 13:10:31;;;;;;;28.40;5.05;;;22.30;59.50;;;;;;10519599;28;20031;-52
2022/08/08 13:15:32;;;;;;;37.80;6.88;;;22.30;59.90;;;;;;10537204;28;20069;-55
2022/08/08 13:20:42;;;;;;;29.98;5.43;;;22.30;59.70;;;;;;10517727;28;20081;-53
2022/08/08 13:25:43;;;;;;;27.83;5.28;;;22.30;59.50;;;;;;10536391;28;20036;-48
2022/08/08 13:30:45;;;;;;;25.02;4.13;;;22.30;59.20;;;;;;10534108;28;20113;-52
2022/08/08 13:35:45;;;;;;;27.30;3.63;;;22.30;59.50;;;;;;10515185;28;20028;-51
2022/08/08 13:40:47;;;;;;;25.25;3.60;;;22.40;60.30;;;;;;10534807;28;20123;-53
2022/08/08 13:45:48;;;;;;;15.77;3.70;;;22.40;59.60;;;;;;10496998;28;20020;-52
2022/08/08 13:50:49;;;;;;;20.83;4.35;;;22.30;59.70;;;;;;10506443;28;20032;-51
2022/08/08 13:56:01;;;;;;;12.85;3.22;;;22.40;59.80;;;;;;10510886;28;20040;-50
2022/08/08 14:01:16;;;;;;;17.45;3.60;;;22.40;59.60;;;;;;10534799;28;20024;-49
2022/08/08 14:06:17;;;;;;;17.73;3.53;;;22.40;59.50;;;;;;10530583;28;20476;-51
2022/08/08 14:11:24;;;;;;;14.82;4.63;;;22.40;59.50;;;;;;10531142;28;20022;-51
2022/08/08 14:16:25;;;;;;;9.65;3.10;;;22.40;59.50;;;;;;10525863;28;20043;-53
2022/08/08 14:21:41;;;;;;;9.40;2.67;;;22.40;59.60;;;;;;10533837;28;20194;-51
2022/08/08 14:26:44;;;;;;;9.75;3.22;;;22.40;59.60;;;;;;10533478;28;20040;-51
2022/08/08 14:31:50;;;;;;;14.60;3.63;;;22.40;59.50;;;;;;10524766;28;20024;-52
2022/08/08 14:36:51;;;;;;;8.80;3.03;;;22.40;59.70;;;;;;10533179;28;20064;-49
2022/08/08 14:42:02;;;;;;;11.18;3.40;;;22.40;59.60;;;;;;10514629;28;20194;-49
2022/08/08 14:47:05;;;;;;;9.57;2.78;;;22.50;59.70;;;;;;10532860;28;20055;-52
2022/08/08 14:52:08;;;;;;;12.38;3.33;;;22.50;59.70;;;;;;10497977;28;20716;-52
2022/08/08 14:57:08;;;;;;;11.43;3.22;;;22.40;59.60;;;;;;10532906;28;20036;-50
2022/08/08 15:02:09;;;;;;;18.27;3.35;;;22.40;59.80;;;;;;10532891;28;20093;-53
2022/08/08 15:07:10;;;;;;;23.58;5.18;;;22.50;59.80;;;;;;10531993;28;20375;-53
2022/08/08 15:12:10;;;;;;;14.48;3.40;;;22.50;60.10;;;;;;10513284;28;20032;-52
2022/08/08 15:17:11;;;;;;;9.63;2.55;;;22.50;60.20;;;;;;10514589;28;20020;-50
2022/08/08 15:22:13;;;;;;;10.85;2.40;;;22.50;60.00;;;;;;10530720;28;20021;-52
2022/08/08 15:27:14;;;;;;;10.85;3.03;;;22.50;59.90;;;;;;10514150;28;20055;-50
2022/08/08 15:32:15;;;;;;;14.20;3.40;;;22.50;59.90;;;;;;10511603;28;20573;-53
2022/08/08 15:37:16;;;;;;;12.02;2.60;;;22.50;59.90;;;;;;10531393;28;20043;-54
2022/08/08 15:42:19;;;;;;;27.70;8.00;;;22.50;60.30;;;;;;10513864;28;20031;-53
2022/08/08 15:47:21;;;;;;;22.85;13.32;;;22.80;62.80;;;;;;10521742;28;20039;-55
2022/08/08 15:52:23;;;;;;;28.20;17.95;;;22.90;60.80;;;;;;10531793;28;20036;-54
2022/08/08 15:57:23;;;;;;;14.63;6.57;;;22.90;61.90;;;;;;10513568;28;20378;-55
2022/08/08 16:02:24;;;;;;;20.88;6.28;;;22.90;62.40;;;;;;10531116;28;20028;-54
2022/08/08 16:07:25;;;;;;;12.10;3.53;;;23.10;61.20;;;;;;10531812;28;20043;-54
2022/08/08 16:12:26;;;;;;;12.88;4.63;;;23.00;60.10;;;;;;10513082;28;20036;-51
2022/08/08 16:17:27;;;;;;;15.52;3.38;;;23.00;59.90;;;;;;10536623;28;20482;-54
2022/08/08 16:22:27;;;;;;;9.43;3.38;;;22.80;60.10;;;;;;10537740;28;20043;-53
2022/08/08 16:27:28;;;;;;;8.27;2.88;;;22.80;60.10;;;;;;10537663;28;20031;-52
2022/08/08 16:32:30;;;;;;;11.10;2.88;;;22.70;60.00;;;;;;10538122;28;20038;-53
2022/08/08 16:37:31;;;;;;;8.88;3.22;;;22.60;59.90;;;;;;10519363;28;20139;-54
2022/08/08 16:42:32;;;;;;;10.80;3.50;;;22.70;60.00;;;;;;10537747;28;20128;-53
2022/08/08 16:47:33;;;;;;;5.68;2.10;;;22.60;60.10;;;;;;10536711;28;20036;-53
2022/08/08 16:52:34;;;;;;;8.90;2.97;;;22.60;60.00;;;;;;10527020;28;20035;-52
2022/08/08 16:57:34;;;;;;;8.68;2.72;;;22.60;60.00;;;;;;10536928;28;20052;-54
2022/08/08 17:02:36;;;;;;;6.07;2.42;;;22.60;59.90;;;;;;10536430;28;20515;-54
2022/08/08 17:07:37;;;;;;;7.70;2.47;;;22.60;59.90;;;;;;10518139;28;20502;-54
2022/08/08 17:12:38;;;;;;;4.72;2.00;;;22.60;59.90;;;;;;10536442;28;20036;-52
2022/08/08 17:17:39;;;;;;;7.57;3.10;;;22.60;59.90;;;;;;10535618;28;20070;-52
2022/08/08 17:22:40;;;;;;;4.68;2.20;;;22.60;59.80;;;;;;10535211;28;20039;-53
2022/08/08 17:27:41;;;;;;;5.45;2.35;;;22.50;59.70;;;;;;10516469;28;20030;-52
2022/08/08 17:32:41;;;;;;;4.85;2.10;;;22.50;59.70;;;;;;10525043;28;20039;-54
2022/08/08 17:37:43;;;;;;;5.00;2.28;;;22.50;59.70;;;;;;10516403;28;20474;-53
2022/08/08 17:42:44;;;;;;;6.25;1.77;;;22.50;59.70;;;;;;10500174;28;20534;-53
2022/08/08 17:47:44;;;;;;;3.67;2.13;;;22.50;60.30;;;;;;10520687;28;20052;-53
2022/08/08 17:52:45;;;;;;;5.88;2.75;;;22.50;59.60;;;;;;10534126;28;20027;-53
2022/08/08 17:57:46;;;;;;;4.85;2.03;;;22.50;59.50;;;;;;10515774;28;20035;-53
2022/08/08 18:02:47;;;;;;;3.67;1.92;;;22.50;59.50;;;;;;10515847;28;20062;-54
2022/08/08 18:07:48;;;;;;;8.52;2.05;;;22.50;59.40;;;;;;10515053;28;20487;-53
2022/08/08 18:12:49;;;;;;;9.88;2.97;;;22.50;59.40;;;;;;10533146;28;20054;-54
2022/08/08 18:17:50;;;;;;;6.82;2.08;;;22.50;59.30;;;;;;10515311;28;20505;-54
2022/08/08 18:22:51;;;;;;;15.38;2.50;;;22.50;59.30;;;;;;10532563;28;20047;-54
2022/08/08 18:27:51;;;;;;;5.72;2.25;;;22.50;59.30;;;;;;10530635;28;20107;-53
2022/08/08 18:32:52;;;;;;;4.47;2.08;;;22.50;59.30;;;;;;10532149;28;20752;-52
2022/08/08 18:37:55;;;;;;;6.35;1.98;;;22.50;58.80;;;;;;10532007;28;20484;-53
2022/08/08 18:42:56;;;;;;;3.30;1.90;;;22.50;58.30;;;;;;10514816;28;20061;-53
2022/08/08 18:47:56;;;;;;;2.70;1.65;;;22.50;58.40;;;;;;10514402;28;20036;-54
2022/08/08 18:52:57;;;;;;;8.48;2.35;;;22.50;58.30;;;;;;10532881;28;20201;-54
2022/08/08 18:57:58;;;;;;;7.00;2.10;;;22.50;57.90;;;;;;10533003;28;20056;-52
2022/08/08 19:02:59;;;;;;;3.47;1.67;;;22.50;58.10;;;;;;10533106;28;20559;-53
2022/08/08 19:08:10;;;;;;;1.95;1.42;;;22.50;58.00;;;;;;10532864;28;20375;-53
2022/08/08 19:13:13;;;;;;;2.83;1.55;;;22.60;58.00;;;;;;10513718;28;20032;-53
2022/08/08 19:18:14;;;;;;;2.40;1.55;;;22.50;58.00;;;;;;10530932;28;20028;-54
2022/08/08 19:23:15;;;;;;;2.85;1.52;;;22.60;58.10;;;;;;10531441;28;20386;-52
2022/08/08 19:28:15;;;;;;;2.65;1.27;;;22.50;58.00;;;;;;10530923;28;20029;-52
2022/08/08 19:33:16;;;;;;;4.50;1.75;;;22.60;58.00;;;;;;10531542;28;20016;-55
2022/08/08 19:38:17;;;;;;;3.95;2.25;;;22.50;58.10;;;;;;10529868;28;20687;-54
2022/08/08 19:43:18;;;;;;;2.13;1.58;;;22.60;58.20;;;;;;10528753;28;20027;-53
2022/08/08 19:48:18;;;;;;;8.07;1.70;;;22.60;58.10;;;;;;10508530;28;20028;-54
2022/08/08 19:53:19;;;;;;;3.20;1.60;;;22.50;58.10;;;;;;10538613;28;20099;-54
2022/08/08 19:58:20;;;;;;;4.03;1.48;;;22.60;58.30;;;;;;10521865;28;20040;-53
2022/08/08 20:03:20;;;;;;;3.00;1.20;;;22.50;58.40;;;;;;10540019;28;20026;-54
2022/08/08 20:08:25;;;;;;;4.85;1.95;;;22.50;58.40;;;;;;10539012;28;20036;-52
2022/08/08 20:13:26;;;;;;;2.45;1.25;;;22.60;58.30;;;;;;10516087;28;20039;-53
2022/08/08 20:18:27;;;;;;;3.15;1.35;;;22.60;58.40;;;;;;10517398;28;20089;-54
2022/08/08 20:23:29;;;;;;;3.80;1.50;;;22.50;58.40;;;;;;10533040;28;20768;-53
2022/08/08 20:28:29;;;;;;;3.30;1.85;;;22.60;58.50;;;;;;10517536;28;20371;-53
2022/08/08 20:33:30;;;;;;;2.45;1.50;;;22.50;58.40;;;;;;10538418;28;20028;-53
2022/08/08 20:38:31;;;;;;;1.88;1.42;;;22.50;58.40;;;;;;10538557;28;20438;-53
2022/08/08 20:43:32;;;;;;;3.10;1.40;;;22.50;58.40;;;;;;10538461;28;20483;-54
2022/08/08 20:48:33;;;;;;;2.25;1.80;;;22.50;58.40;;;;;;10537914;28;20399;-54
2022/08/08 20:53:34;;;;;;;2.53;1.20;;;22.50;58.40;;;;;;10520085;28;20623;-53
2022/08/08 20:58:35;;;;;;;3.88;1.42;;;22.50;58.40;;;;;;10519433;28;20040;-52
2022/08/08 21:03:35;;;;;;;2.38;1.63;;;22.50;58.50;;;;;;10537726;28;20485;-52
2022/08/08 21:08:36;;;;;;;3.75;1.67;;;22.50;58.40;;;;;;10537381;28;20485;-54
2022/08/08 21:13:37;;;;;;;6.47;1.67;;;22.50;58.50;;;;;;10537450;28;20550;-52
2022/08/08 21:18:37;;;;;;;2.08;1.38;;;22.50;58.60;;;;;;10536724;28;20651;-52
2022/08/08 21:23:38;;;;;;;3.08;1.52;;;22.50;58.60;;;;;;10537115;28;20496;-52
2022/08/08 21:28:39;;;;;;;3.28;1.58;;;22.50;58.70;;;;;;10536351;28;20081;-54
2022/08/08 21:33:40;;;;;;;3.70;1.98;;;22.50;58.70;;;;;;10536613;28;20356;-54
2022/08/08 21:38:41;;;;;;;1.83;1.33;;;22.50;58.70;;;;;;10536022;28;20055;-53
2022/08/08 21:43:42;;;;;;;2.53;1.50;;;22.50;58.70;;;;;;10536381;28;20032;-52
2022/08/08 21:48:43;;;;;;;2.90;1.65;;;22.50;58.70;;;;;;10517733;28;20483;-53
2022/08/08 21:53:43;;;;;;;2.33;1.63;;;22.50;58.70;;;;;;10536187;28;20099;-53
2022/08/08 21:58:44;;;;;;;3.15;1.63;;;22.50;58.70;;;;;;10517181;28;20024;-53
2022/08/08 22:03:45;;;;;;;1.98;1.23;;;22.50;58.70;;;;;;10517324;28;20081;-53
2022/08/08 22:08:45;;;;;;;2.17;1.50;;;22.50;58.70;;;;;;10534588;28;20044;-53
2022/08/08 22:13:50;;;;;;;2.17;1.63;;;22.50;58.80;;;;;;10534318;28;20647;-54
2022/08/08 22:18:51;;;;;;;1.95;1.30;;;22.50;58.80;;;;;;10535116;28;20050;-54
2022/08/08 22:23:52;;;;;;;2.15;1.40;;;22.50;58.80;;;;;;10517176;28;20046;-52
2022/08/08 22:28:53;;;;;;;1.95;1.65;;;22.50;58.90;;;;;;10533029;28;20386;-54
2022/08/08 22:33:53;;;;;;;2.58;1.58;;;22.50;58.80;;;;;;10516494;28;20020;-53
2022/08/08 22:38:54;;;;;;;1.77;1.25;;;22.50;58.90;;;;;;10498934;28;20502;-52
2022/08/08 22:43:55;;;;;;;3.65;1.83;;;22.40;58.80;;;;;;10515755;28;20459;-52
2022/08/08 22:48:55;;;;;;;2.03;1.27;;;22.50;58.90;;;;;;10533078;28;20028;-55
2022/08/08 22:53:56;;;;;;;5.40;2.28;;;22.40;58.80;;;;;;10533735;28;20526;-52
2022/08/08 22:58:57;;;;;;;2.60;1.50;;;22.50;58.90;;;;;;10533262;28;20534;-52
2022/08/08 23:03:57;;;;;;;2.53;1.60;;;22.50;58.90;;;;;;10533064;28;20102;-52
2022/08/08 23:08:58;;;;;;;2.05;1.42;;;22.40;58.80;;;;;;10514669;28;20118;-53
2022/08/08 23:13:59;;;;;;;2.65;1.80;;;22.40;58.90;;;;;;10532890;28;20063;-54
2022/08/08 23:19:00;;;;;;;2.55;1.60;;;22.40;58.90;;;;;;10532513;28;20048;-53
2022/08/08 23:24:00;;;;;;;2.42;1.00;;;22.40;59.00;;;;;;10531882;28;20042;-53
2022/08/08 23:29:01;;;;;;;2.58;1.60;;;22.40;58.90;;;;;;10532159;28;20039;-53
2022/08/08 23:34:02;;;;;;;1.95;1.40;;;22.40;58.90;;;;;;10514754;28;20031;-53
2022/08/08 23:39:03;;;;;;;2.38;1.48;;;22.40;58.90;;;;;;10514429;28;20048;-53
2022/08/08 23:44:04;;;;;;;2.33;1.60;;;22.40;58.90;;;;;;10514584;28;20509;-53
2022/08/08 23:49:05;;;;;;;1.75;1.17;;;22.40;59.00;;;;;;10532446;28;20036;-53
2022/08/08 23:54:05;;;;;;;2.03;1.83;;;22.40;59.00;;;;;;10514582;28;20107;-54
2022/08/08 23:59:06;;;;;;;2.10;1.40;;;22.40;59.00;;;;;;10532222;28;20044;-51
